createdAt,value
2018-05-21T00:00:42.787Z,98673.96
2018-05-21T00:03:10.189Z,98666.73
2018-05-21T00:05:37.573Z,98666.57
2018-05-21T00:08:04.958Z,98668.03
2018-05-21T00:10:32.339Z,98665.96
2018-05-21T00:12:59.736Z,98665.28
2018-05-21T00:15:27.127Z,98668.45
2018-05-21T00:17:54.517Z,98667.29
2018-05-21T00:20:21.891Z,98661.89
2018-05-21T00:22:49.295Z,98661.95
2018-05-21T00:25:16.679Z,98661.21
2018-05-21T00:27:44.072Z,98659.83
2018-05-21T00:30:11.464Z,98659.24
2018-05-21T00:32:38.871Z,98658.17
2018-05-21T00:35:06.247Z,98655.33
2018-05-21T00:37:33.630Z,98653.91
2018-05-21T00:40:01.023Z,98650.69
2018-05-21T00:42:28.413Z,98655.11
2018-05-21T00:44:55.806Z,98650.97
2018-05-21T00:47:23.179Z,98643.77
2018-05-21T00:49:50.580Z,98644.87
2018-05-21T00:52:17.971Z,98642.80
2018-05-21T00:57:48.216Z,98642.89
2018-05-21T01:00:15.619Z,98639.20
2018-05-21T01:02:42.997Z,98633.84
2018-05-21T01:05:10.392Z,98640.18
2018-05-21T01:07:37.776Z,98639.05
2018-05-21T01:10:05.171Z,98637.98
2018-05-21T01:12:32.559Z,98637.75
2018-05-21T01:14:59.945Z,98638.70
2018-05-21T01:17:27.341Z,98641.53
2018-05-21T01:19:54.739Z,98633.84
2018-05-21T01:22:22.124Z,98634.73
2018-05-21T01:24:49.535Z,98634.03
2018-05-21T01:27:16.920Z,98640.48
2018-05-21T01:29:44.332Z,98643.30
2018-05-21T01:32:11.719Z,98643.87
2018-05-21T01:34:39.122Z,98641.55
2018-05-21T01:37:06.497Z,98639.95
2018-05-21T01:39:33.891Z,98645.10
2018-05-21T01:42:01.707Z,98638.54
2018-05-21T01:44:29.101Z,98643.87
2018-05-21T01:46:56.491Z,98642.34
2018-05-21T01:49:23.885Z,98638.48
2018-05-21T01:51:51.271Z,98635.69
2018-05-21T01:54:18.681Z,98634.22
2018-05-21T01:56:46.055Z,98630.24
2018-05-21T01:59:13.450Z,98630.97
2018-05-21T02:01:41.611Z,98637.84
2018-05-21T02:04:09.019Z,98638.36
2018-05-21T02:06:36.400Z,98638.16
2018-05-21T02:09:03.812Z,98634.41
2018-05-21T02:11:31.211Z,98632.08
2018-05-21T02:13:58.595Z,98630.76
2018-05-21T02:16:25.980Z,98622.24
2018-05-21T02:18:53.374Z,98624.98
2018-05-21T02:21:20.761Z,98624.10
2018-05-21T02:23:48.149Z,98627.77
2018-05-21T02:26:15.547Z,98620.41
2018-05-21T02:28:42.937Z,98615.23
2018-05-21T02:31:10.355Z,98617.62
2018-05-21T02:33:37.738Z,98611.96
2018-05-21T02:36:05.139Z,98616.88
2018-05-21T02:38:32.523Z,98616.52
2018-05-21T02:40:59.916Z,98621.49
2018-05-21T02:43:27.305Z,98620.22
2018-05-21T02:45:54.709Z,98621.39
2018-05-21T02:48:22.091Z,98618.05
2018-05-21T02:50:49.499Z,98622.77
2018-05-21T02:53:16.876Z,98623.00
2018-05-21T02:55:44.284Z,98616.67
2018-05-21T02:58:11.664Z,98617.52
2018-05-21T03:00:39.073Z,98612.23
2018-05-21T03:03:06.449Z,98610.75
2018-05-21T03:05:33.844Z,98612.19
2018-05-21T03:08:01.235Z,98612.48
2018-05-21T03:10:28.616Z,98615.34
2018-05-21T03:12:56.000Z,98616.55
2018-05-21T03:15:23.402Z,98613.22
2018-05-21T03:17:50.780Z,98605.73
2018-05-21T03:20:18.168Z,98613.19
2018-05-21T03:22:45.570Z,98614.47
2018-05-21T03:25:12.972Z,98611.25
2018-05-21T03:27:40.369Z,98613.43
2018-05-21T03:30:07.760Z,98613.92
2018-05-21T03:32:35.165Z,98613.70
2018-05-21T03:35:02.552Z,98613.83
2018-05-21T03:37:29.943Z,98604.31
2018-05-21T03:39:57.335Z,98607.33
2018-05-21T03:42:24.725Z,98609.86
2018-05-21T03:44:52.112Z,98613.65
2018-05-21T03:47:19.512Z,98606.57
2018-05-21T03:49:46.899Z,98616.45
2018-05-21T03:52:14.305Z,98619.36
2018-05-21T03:54:41.693Z,98611.00
2018-05-21T03:57:09.089Z,98618.08
2018-05-21T03:59:48.223Z,98620.16
2018-05-21T04:02:27.495Z,98625.74
2018-05-21T04:04:54.883Z,98629.77
2018-05-21T04:07:22.273Z,98630.97
2018-05-21T04:09:49.661Z,98622.94
2018-05-21T04:12:17.375Z,98627.70
2018-05-21T04:14:44.772Z,98616.04
2018-05-21T04:17:12.174Z,98618.58
2018-05-21T04:19:39.551Z,98624.23
2018-05-21T04:22:06.965Z,98620.64
2018-05-21T04:24:34.350Z,98614.00
2018-05-21T04:27:01.758Z,98622.00
2018-05-21T04:29:29.127Z,98625.20
2018-05-21T04:31:56.525Z,98626.98
2018-05-21T04:34:23.904Z,98631.27
2018-05-21T04:36:51.300Z,98637.60
2018-05-21T04:39:18.680Z,98636.79
2018-05-21T04:41:46.067Z,98633.21
2018-05-21T04:44:13.461Z,98636.39
2018-05-21T04:46:40.849Z,98630.31
2018-05-21T04:49:08.241Z,98634.33
2018-05-21T04:51:35.638Z,98630.21
2018-05-21T04:54:03.040Z,98633.63
2018-05-21T04:56:30.445Z,98623.73
2018-05-21T04:58:57.837Z,98632.48
2018-05-21T05:01:25.219Z,98621.87
2018-05-21T05:03:52.608Z,98627.01
2018-05-21T05:06:20.001Z,98625.20
2018-05-21T05:08:47.409Z,98626.11
2018-05-21T05:11:14.787Z,98627.25
2018-05-21T05:13:42.176Z,98630.00
2018-05-21T05:16:09.561Z,98625.31
2018-05-21T05:18:36.956Z,98623.80
2018-05-21T05:21:04.420Z,98617.77
2018-05-21T05:23:31.745Z,98606.72
2018-05-21T05:25:59.123Z,98612.42
2018-05-21T05:28:26.526Z,98617.71
2018-05-21T05:30:53.896Z,98610.44
2018-05-21T05:33:21.292Z,98616.68
2018-05-21T05:35:48.676Z,98609.42
2018-05-21T05:38:16.147Z,98611.50
2018-05-21T05:40:43.464Z,98613.56
2018-05-21T05:43:10.853Z,98610.38
2018-05-21T05:45:38.252Z,98609.36
2018-05-21T05:48:05.648Z,98604.91
2018-05-21T05:50:33.042Z,98607.75
2018-05-21T05:53:00.428Z,98610.93
2018-05-21T05:55:27.823Z,98613.03
2018-05-21T05:57:55.202Z,98604.64
2018-05-21T06:00:22.610Z,98607.78
2018-05-21T06:02:50.619Z,98602.22
2018-05-21T06:05:18.022Z,98608.41
2018-05-21T06:07:45.413Z,98602.31
2018-05-21T06:10:12.829Z,98613.92
2018-05-21T06:12:40.221Z,98608.36
2018-05-21T06:15:07.625Z,98601.33
2018-05-21T06:17:35.008Z,98597.41
2018-05-21T06:20:02.395Z,98596.83
2018-05-21T06:22:29.791Z,98594.17
2018-05-21T06:24:57.191Z,98594.38
2018-05-21T06:27:24.579Z,98593.56
2018-05-21T06:29:51.976Z,98608.47
2018-05-21T06:32:19.357Z,98605.90
2018-05-21T06:34:46.752Z,98604.72
2018-05-21T06:37:14.132Z,98609.91
2018-05-21T06:39:41.534Z,98617.22
2018-05-21T06:42:08.916Z,98622.28
2018-05-21T06:44:36.322Z,98622.88
2018-05-21T06:47:03.699Z,98615.95
2018-05-21T06:49:31.087Z,98621.67
2018-05-21T06:51:58.473Z,98608.92
2018-05-21T06:54:25.892Z,98614.58
2018-05-21T06:56:54.090Z,98609.42
2018-05-21T06:59:21.477Z,98604.22
2018-05-21T07:01:48.857Z,98613.27
2018-05-21T07:04:16.251Z,98618.42
2018-05-21T07:06:43.644Z,98613.51
2018-05-21T07:09:11.331Z,98613.64
2018-05-21T07:11:38.723Z,98607.50
2018-05-21T07:14:06.096Z,98607.13
2018-05-21T07:16:33.502Z,98612.17
2018-05-21T07:19:00.878Z,98605.75
2018-05-21T07:21:28.276Z,98607.16
2018-05-21T07:23:55.686Z,98603.72
2018-05-21T07:26:23.060Z,98606.94
2018-05-21T07:28:50.439Z,98601.06
2018-05-21T07:31:17.831Z,98604.00
2018-05-21T07:33:45.219Z,98608.08
2018-05-21T07:36:13.188Z,98601.45
2018-05-21T07:38:40.587Z,98599.72
2018-05-21T07:41:07.977Z,98602.38
2018-05-21T07:43:35.364Z,98595.23
2018-05-21T07:46:03.576Z,98591.73
2018-05-21T07:48:30.960Z,98592.02
2018-05-21T07:50:58.354Z,98594.82
2018-05-21T07:53:25.920Z,98583.27
2018-05-21T07:55:53.316Z,98582.95
2018-05-21T07:58:20.710Z,98586.45
2018-05-21T08:00:48.096Z,98584.06
2018-05-21T08:03:15.809Z,98585.66
2018-05-21T08:05:43.212Z,98580.80
2018-05-21T08:08:11.249Z,98581.14
2018-05-21T08:10:38.647Z,98584.08
2018-05-21T08:13:06.034Z,98579.31
2018-05-21T08:15:33.427Z,98579.77
2018-05-21T08:18:00.831Z,98578.23
2018-05-21T08:20:28.220Z,98570.33
2018-05-21T08:22:55.620Z,98570.33
2018-05-21T08:25:23.001Z,98568.63
2018-05-21T08:27:50.399Z,98572.28
2018-05-21T08:30:17.800Z,98575.55
2018-05-21T08:32:45.222Z,98569.46
2018-05-21T08:35:13.265Z,98567.48
2018-05-21T08:37:40.665Z,98562.52
2018-05-21T08:40:08.046Z,98559.31
2018-05-21T08:42:35.505Z,98555.64
2018-05-21T08:45:02.839Z,98560.17
2018-05-21T08:47:30.243Z,98562.65
2018-05-21T08:49:57.759Z,98563.12
2018-05-21T08:52:25.227Z,98559.99
2018-05-21T08:54:52.548Z,98559.69
2018-05-21T08:57:20.520Z,98556.95
2018-05-21T08:59:47.923Z,98561.18
2018-05-21T09:02:15.323Z,98558.07
2018-05-21T09:04:42.744Z,98555.46
2018-05-21T09:07:10.109Z,98548.95
2018-05-21T09:09:37.499Z,98550.50
2018-05-21T09:12:04.895Z,98552.70
2018-05-21T09:14:32.284Z,98553.14
2018-05-21T09:16:59.690Z,98557.17
2018-05-21T09:19:27.064Z,98549.52
2018-05-21T09:21:54.477Z,98543.46
2018-05-21T09:24:22.759Z,98540.18
2018-05-21T09:26:50.162Z,98543.27
2018-05-21T09:29:17.541Z,98539.60
2018-05-21T09:31:44.946Z,98545.89
2018-05-21T09:34:12.343Z,98543.52
2018-05-21T09:36:39.748Z,98542.34
2018-05-21T09:39:07.137Z,98541.53
2018-05-21T09:41:34.909Z,98541.33
2018-05-21T09:44:02.323Z,98538.32
2018-05-21T09:46:29.813Z,98540.59
2018-05-21T09:48:57.208Z,98536.27
2018-05-21T09:51:24.611Z,98534.48
2018-05-21T09:53:51.987Z,98530.83
2018-05-21T09:56:19.701Z,98528.20
2018-05-21T09:58:47.099Z,98529.68
2018-05-21T10:01:14.488Z,98524.11
2018-05-21T10:03:41.883Z,98529.76
2018-05-21T10:06:09.275Z,98530.14
2018-05-21T10:08:36.669Z,98524.48
2018-05-21T10:11:04.061Z,98528.89
2018-05-21T10:13:31.444Z,98519.97
2018-05-21T10:15:58.843Z,98522.80
2018-05-21T10:18:26.544Z,98513.23
2018-05-21T10:20:53.933Z,98515.47
2018-05-21T10:23:21.340Z,98514.61
2018-05-21T10:25:48.720Z,98510.03
2018-05-21T10:28:16.116Z,98506.68
2018-05-21T10:30:43.512Z,98510.80
2018-05-21T10:33:10.900Z,98506.89
2018-05-21T10:35:38.308Z,98504.21
2018-05-21T10:38:05.695Z,98506.14
2018-05-21T10:40:33.101Z,98505.30
2018-05-21T10:43:01.263Z,98507.36
2018-05-21T10:45:28.687Z,98504.38
2018-05-21T10:47:56.065Z,98501.97
2018-05-21T10:50:23.472Z,98501.69
2018-05-21T10:52:50.863Z,98495.92
2018-05-21T10:55:18.256Z,98500.05
2018-05-21T10:57:45.640Z,98496.34
2018-05-21T11:00:13.043Z,98491.20
2018-05-21T11:02:40.431Z,98492.41
2018-05-21T11:05:07.832Z,98487.98
2018-05-21T11:07:35.219Z,98481.69
2018-05-21T11:10:03.672Z,98478.61
2018-05-21T11:12:31.057Z,98479.03
2018-05-21T11:14:58.458Z,98476.55
2018-05-21T11:17:25.852Z,98477.70
2018-05-21T11:19:53.247Z,98477.58
2018-05-21T11:22:20.620Z,98479.02
2018-05-21T11:24:48.016Z,98471.48
2018-05-21T11:27:15.430Z,98464.46
2018-05-21T11:29:42.811Z,98464.17
2018-05-21T11:32:10.187Z,98463.47
2018-05-21T11:34:37.592Z,98460.25
2018-05-21T11:37:04.981Z,98455.48
2018-05-21T11:39:32.417Z,98457.96
2018-05-21T11:41:59.805Z,98450.63
2018-05-21T11:44:27.201Z,98458.27
2018-05-21T11:46:54.588Z,98452.31
2018-05-21T11:49:21.975Z,98446.31
2018-05-21T11:51:49.367Z,98446.56
2018-05-21T11:54:16.756Z,98442.62
2018-05-21T11:56:44.159Z,98440.54
2018-05-21T11:59:11.556Z,98441.25
2018-05-21T12:01:38.940Z,98435.77
2018-05-21T12:04:06.330Z,98431.48
2018-05-21T12:06:33.803Z,98428.84
2018-05-21T12:09:01.184Z,98435.58
2018-05-21T12:11:28.583Z,98434.94
2018-05-21T12:13:55.956Z,98428.75
2018-05-21T12:16:23.348Z,98430.81
2018-05-21T12:18:50.738Z,98429.84
2018-05-21T12:21:18.140Z,98432.77
2018-05-21T12:23:45.524Z,98427.37
2018-05-21T12:26:12.929Z,98428.52
2018-05-21T12:28:40.371Z,98428.16
2018-05-21T12:31:07.729Z,98421.42
2018-05-21T12:33:35.120Z,98423.58
2018-05-21T12:36:02.519Z,98420.38
2018-05-21T12:38:29.911Z,98418.88
2018-05-21T12:40:57.302Z,98422.71
2018-05-21T12:43:24.686Z,98420.73
2018-05-21T12:45:52.081Z,98415.67
2018-05-21T12:48:19.463Z,98416.81
2018-05-21T12:50:46.851Z,98409.92
2018-05-21T12:53:14.244Z,98414.54
2018-05-21T12:55:41.634Z,98405.41
2018-05-21T12:58:09.033Z,98415.24
2018-05-21T13:00:37.392Z,98413.59
2018-05-21T13:03:04.793Z,98413.82
2018-05-21T13:05:32.180Z,98411.06
2018-05-21T13:07:59.585Z,98408.31
2018-05-21T13:10:26.969Z,98403.88
2018-05-21T13:12:54.366Z,98400.02
2018-05-21T13:15:22.243Z,98398.76
2018-05-21T13:17:49.629Z,98398.22
2018-05-21T13:20:17.012Z,98400.61
2018-05-21T13:22:44.409Z,98397.12
2018-05-21T13:25:14.012Z,98395.61
2018-05-21T13:27:41.780Z,98392.69
2018-05-21T13:30:09.167Z,98387.97
2018-05-21T13:32:36.580Z,98387.70
2018-05-21T13:35:03.964Z,98380.65
2018-05-21T13:37:31.356Z,98373.88
2018-05-21T13:39:59.355Z,98383.02
2018-05-21T13:42:26.757Z,98375.42
2018-05-21T13:44:54.150Z,98372.11
2018-05-21T13:47:21.545Z,98367.30
2018-05-21T13:49:48.928Z,98364.74
2018-05-21T13:52:16.954Z,98362.66
2018-05-21T13:54:44.300Z,98370.37
2018-05-21T13:57:11.708Z,98360.67
2018-05-21T13:59:40.617Z,98358.30
2018-05-21T14:02:07.991Z,98354.63
2018-05-21T14:04:35.394Z,98352.91
2018-05-21T14:07:02.885Z,98347.23
2018-05-21T14:09:30.272Z,98342.28
2018-05-21T14:11:58.548Z,98338.63
2018-05-21T14:14:25.944Z,98337.02
2018-05-21T14:16:53.328Z,98333.39
2018-05-21T14:19:20.720Z,98326.22
2018-05-21T14:21:48.104Z,98326.38
2018-05-21T14:24:15.519Z,98326.03
2018-05-21T14:26:42.896Z,98323.06
2018-05-21T14:29:11.260Z,98324.16
2018-05-21T14:31:38.651Z,98323.42
2018-05-21T14:34:06.057Z,98326.85
2018-05-21T14:36:33.439Z,98321.60
2018-05-21T14:39:00.838Z,98321.17
2018-05-21T14:41:28.218Z,98318.39
2018-05-21T14:43:55.604Z,98313.03
2018-05-21T14:46:22.996Z,98318.70
2018-05-21T14:48:50.399Z,98319.30
2018-05-21T14:51:17.803Z,98316.73
2018-05-21T14:53:45.211Z,98310.49
2018-05-21T14:56:12.583Z,98313.88
2018-05-21T14:58:39.976Z,98310.78
2018-05-21T15:01:07.376Z,98319.49
2018-05-21T15:03:34.764Z,98315.61
2018-05-21T15:06:02.715Z,98315.84
2018-05-21T15:08:30.118Z,98308.19
2018-05-21T15:10:57.508Z,98315.19
2018-05-21T15:13:24.897Z,98311.39
2018-05-21T15:15:52.312Z,98312.55
2018-05-21T15:18:19.700Z,98313.47
2018-05-21T15:20:47.084Z,98308.83
2018-05-21T15:23:14.480Z,98310.13
2018-05-21T15:25:41.869Z,98313.61
2018-05-21T15:28:09.262Z,98311.33
2018-05-21T15:30:36.673Z,98314.58
2018-05-21T15:33:04.052Z,98309.39
2018-05-21T15:35:31.452Z,98306.70
2018-05-21T15:37:58.843Z,98309.97
2018-05-21T15:40:26.245Z,98299.96
2018-05-21T15:42:53.627Z,98301.53
2018-05-21T15:45:21.037Z,98291.06
2018-05-21T15:47:48.429Z,98292.05
2018-05-21T15:50:15.872Z,98283.72
2018-05-21T15:52:43.256Z,98280.24
2018-05-21T15:55:10.647Z,98281.66
2018-05-21T15:57:38.084Z,98275.58
2018-05-21T16:00:05.432Z,98279.67
2018-05-21T16:02:32.840Z,98274.95
2018-05-21T16:05:00.286Z,98273.45
2018-05-21T16:07:27.624Z,98265.13
2018-05-21T16:09:55.803Z,98267.00
2018-05-21T16:12:23.200Z,98268.44
2018-05-21T16:14:50.591Z,98264.97
2018-05-21T16:17:17.977Z,98263.34
2018-05-21T16:19:46.149Z,98253.69
2018-05-21T16:22:13.554Z,98247.91
2018-05-21T16:24:40.938Z,98254.75
2018-05-21T16:27:08.328Z,98249.02
2018-05-21T16:29:35.732Z,98251.86
2018-05-21T16:32:03.122Z,98254.31
2018-05-21T16:34:30.507Z,98247.33
2018-05-21T16:36:57.906Z,98242.90
2018-05-21T16:39:25.294Z,98248.02
2018-05-21T16:41:52.675Z,98252.60
2018-05-21T16:44:20.087Z,98252.97
2018-05-21T16:46:47.463Z,98247.52
2018-05-21T16:49:14.860Z,98249.06
2018-05-21T16:51:42.255Z,98244.88
2018-05-21T16:54:09.638Z,98252.11
2018-05-21T16:56:37.036Z,98245.83
2018-05-21T16:59:04.424Z,98253.80
2018-05-21T17:01:32.153Z,98248.93
2018-05-21T17:03:59.545Z,98252.42
2018-05-21T17:06:26.947Z,98236.83
2018-05-21T17:08:54.333Z,98236.61
2018-05-21T17:11:21.731Z,98236.33
2018-05-21T17:13:49.126Z,98241.81
2018-05-21T17:16:16.522Z,98241.34
2018-05-21T17:18:43.912Z,98243.18
2018-05-21T17:21:11.353Z,98239.95
2018-05-21T17:23:38.719Z,98239.34
2018-05-21T17:26:06.129Z,98238.81
2018-05-21T17:28:33.527Z,98238.25
2018-05-21T17:31:01.368Z,98231.72
2018-05-21T17:33:28.772Z,98232.66
2018-05-21T17:35:56.156Z,98233.34
2018-05-21T17:38:23.549Z,98240.17
2018-05-21T17:40:50.936Z,98239.38
2018-05-21T17:43:19.323Z,98243.39
2018-05-21T17:45:46.727Z,98246.31
2018-05-21T17:48:14.121Z,98242.46
2018-05-21T17:50:41.945Z,98242.97
2018-05-21T17:53:15.346Z,98245.47
2018-05-21T17:55:42.733Z,98247.80
2018-05-21T17:58:10.125Z,98241.09
2018-05-21T18:00:37.508Z,98243.95
2018-05-21T18:03:05.780Z,98239.81
2018-05-21T18:05:33.128Z,98243.78
2018-05-21T18:08:00.528Z,98242.73
2018-05-21T18:10:27.916Z,98246.34
2018-05-21T18:12:55.312Z,98247.70
2018-05-21T18:15:22.706Z,98248.50
2018-05-21T18:17:50.183Z,98249.67
2018-05-21T18:20:17.569Z,98255.25
2018-05-21T18:22:44.976Z,98257.48
2018-05-21T18:25:12.349Z,98255.42
2018-05-21T18:27:39.764Z,98252.55
2018-05-21T18:30:07.679Z,98247.17
2018-05-21T18:32:35.013Z,98256.05
2018-05-21T18:35:02.397Z,98256.56
2018-05-21T18:37:29.798Z,98260.91
2018-05-21T18:39:57.189Z,98255.52
2018-05-21T18:42:24.734Z,98258.02
2018-05-21T18:44:52.253Z,98256.08
2018-05-21T18:47:20.348Z,98261.23
2018-05-21T18:49:48.211Z,98262.16
2018-05-21T18:52:15.596Z,98258.23
2018-05-21T18:54:42.998Z,98255.58
2018-05-21T18:57:10.388Z,98260.25
2018-05-21T18:59:37.792Z,98265.06
2018-05-21T19:02:05.175Z,98261.36
2018-05-21T19:04:33.917Z,98265.22
2018-05-21T19:07:01.306Z,98261.91
2018-05-21T19:09:28.707Z,98258.36
2018-05-21T19:11:56.095Z,98260.97
2018-05-21T19:14:23.504Z,98266.83
2018-05-21T19:16:51.720Z,98268.17
2018-05-21T19:19:19.117Z,98266.19
2018-05-21T19:21:46.535Z,98260.81
2018-05-21T19:24:13.948Z,98261.50
2018-05-21T19:26:41.321Z,98259.94
2018-05-21T19:29:08.712Z,98259.48
2018-05-21T19:31:36.097Z,98260.70
2018-05-21T19:34:03.492Z,98269.17
2018-05-21T19:36:30.880Z,98269.05
2018-05-21T19:38:58.275Z,98275.09
2018-05-21T19:41:25.675Z,98301.02
2018-05-21T19:43:53.078Z,98313.00
2018-05-21T19:46:20.467Z,98320.11
2018-05-21T19:48:47.862Z,98325.96
2018-05-21T19:51:15.256Z,98323.98
2018-05-21T19:53:42.679Z,98334.46
2018-05-21T19:56:10.133Z,98333.06
2018-05-21T19:58:37.520Z,98334.34
2018-05-21T20:01:05.461Z,98340.59
2018-05-21T20:03:32.858Z,98344.32
2018-05-21T20:06:00.259Z,98340.02
2018-05-21T20:08:27.643Z,98340.95
2018-05-21T20:10:55.052Z,98341.13
2018-05-21T20:13:23.350Z,98349.73
2018-05-21T20:15:50.804Z,98346.37
2018-05-21T20:18:30.019Z,98348.63
2018-05-21T20:20:57.410Z,98349.66
2018-05-21T20:23:24.810Z,98350.69
2018-05-21T20:25:52.210Z,98348.69
2018-05-21T20:28:19.599Z,98354.22
2018-05-21T20:30:46.988Z,98350.80
2018-05-21T20:33:14.377Z,98347.58
2018-05-21T20:35:41.780Z,98348.52
2018-05-21T20:38:09.157Z,98348.74
2018-05-21T20:40:36.555Z,98348.66
2018-05-21T20:43:03.947Z,98341.05
2018-05-21T20:45:31.337Z,98337.33
2018-05-21T20:47:58.722Z,98338.74
2018-05-21T20:50:26.117Z,98338.25
2018-05-21T20:52:53.512Z,98333.80
2018-05-21T20:55:26.431Z,98330.94
2018-05-21T20:57:54.707Z,98326.27
2018-05-21T21:00:22.107Z,98319.91
2018-05-21T21:02:49.507Z,98323.93
2018-05-21T21:05:16.891Z,98319.78
2018-05-21T21:07:44.286Z,98319.19
2018-05-21T21:10:11.683Z,98312.55
2018-05-21T21:12:39.084Z,98316.80
2018-05-21T21:15:06.468Z,98313.56
2018-05-21T21:17:33.868Z,98314.96
2018-05-21T21:20:01.254Z,98318.97
2018-05-21T21:22:28.652Z,98314.97
2018-05-21T21:24:56.035Z,98308.75
2018-05-21T21:27:23.432Z,98302.17
2018-05-21T21:29:50.827Z,98299.98
2018-05-21T21:32:18.297Z,98294.95
2018-05-21T21:34:45.635Z,98296.78
2018-05-21T21:37:13.016Z,98295.23
2018-05-21T21:39:40.400Z,98295.14
2018-05-21T21:42:07.802Z,98291.64
2018-05-21T21:44:35.202Z,98281.94
2018-05-21T21:47:02.592Z,98281.45
2018-05-21T21:49:29.972Z,98287.00
2018-05-21T21:51:57.371Z,98275.86
2018-05-21T21:54:24.759Z,98283.47
2018-05-21T21:56:52.152Z,98276.13
2018-05-21T22:02:39.478Z,98280.30
2018-05-21T22:05:06.884Z,98278.23
2018-05-21T22:07:34.275Z,98273.67
2018-05-21T22:10:01.661Z,98272.16
2018-05-21T22:12:29.064Z,98274.92
2018-05-21T22:14:57.305Z,98270.83
2018-05-21T22:17:24.697Z,98268.17
2018-05-21T22:19:52.105Z,98276.73
2018-05-21T22:22:19.520Z,98264.13
2018-05-21T22:24:46.948Z,98254.73
2018-05-21T22:27:14.344Z,98259.62
2018-05-21T22:29:41.739Z,98252.55
2018-05-21T22:32:09.145Z,98256.10
2018-05-21T22:34:36.526Z,98250.54
2018-05-21T22:37:03.905Z,98250.72
2018-05-21T22:39:31.564Z,98252.02
2018-05-21T22:41:58.932Z,98240.27
2018-05-21T22:44:26.331Z,98240.81
2018-05-21T22:46:53.720Z,98238.70
2018-05-21T22:49:21.189Z,98241.83
2018-05-21T22:51:48.564Z,98240.41
2018-05-21T22:54:27.893Z,98239.98
2018-05-21T22:56:55.269Z,98250.22
2018-05-21T22:59:22.663Z,98253.50
2018-05-21T23:01:50.052Z,98243.11
2018-05-21T23:04:17.444Z,98256.50
2018-05-21T23:06:44.835Z,98258.06
2018-05-21T23:09:12.224Z,98252.92
2018-05-21T23:11:39.616Z,98259.08
2018-05-21T23:14:07.013Z,98257.54
2018-05-21T23:16:34.403Z,98257.82
2018-05-21T23:19:01.826Z,98262.22
2018-05-21T23:21:29.545Z,98256.37
2018-05-21T23:23:56.940Z,98260.00
2018-05-21T23:26:24.334Z,98261.36
2018-05-21T23:28:51.736Z,98254.05
2018-05-21T23:31:19.124Z,98253.12
2018-05-21T23:33:46.521Z,98258.38
2018-05-21T23:36:13.915Z,98253.48
2018-05-21T23:38:41.577Z,98261.53
2018-05-21T23:41:08.971Z,98261.94
2018-05-21T23:43:36.348Z,98265.00
2018-05-21T23:46:03.740Z,98259.11
2018-05-21T23:48:31.124Z,98258.95
2018-05-21T23:50:58.589Z,98255.97
2018-05-21T23:53:25.959Z,98260.00
2018-05-21T23:55:53.354Z,98265.16
2018-05-21T23:58:20.751Z,98265.31
